Time;durP1;ratioP1;P1;durP2;ratioP2;P2;SDS_P1;SDS_P2;PMS_P1;PMS_P2;Temp;Humidity;BMP_temperature;BMP_pressure;BME280_temperature;BME280_humidity;BME280_pressure;Samples;Min_cycle;Max_cycle;Signal;HPM_P1;HPM_P2
2022/12/17 13:07:27;;;;;;;5.60;4.67;;;8.60;93.60;;;;;;6147941;28;20475;-67
2022/12/17 13:10:33;;;;;;;4.30;3.90;;;8.60;92.90;;;;;;6148340;28;20770;-69
2022/12/17 13:13:54;;;;;;;5.77;4.67;;;8.60;92.60;;;;;;6145731;28;20479;-69
2022/12/17 13:17:02;;;;;;;6.77;6.07;;;8.90;92.10;;;;;;6143450;28;21000;-69
2022/12/17 13:20:22;;;;;;;10.20;7.70;;;9.50;90.90;;;;;;6150154;28;21006;-64
2022/12/17 13:23:29;;;;;;;9.70;7.80;;;9.40;90.90;;;;;;6155559;28;20467;-65
2022/12/17 13:26:43;;;;;;;9.10;8.20;;;10.30;89.90;;;;;;6156112;28;20471;-65
2022/12/17 13:29:47;;;;;;;7.80;6.43;;;10.40;88.90;;;;;;6152665;28;20472;-65
2022/12/17 13:33:00;;;;;;;6.80;6.10;;;12.50;88.80;;;;;;6140469;28;20618;-64
2022/12/17 13:36:13;;;;;;;17.43;11.70;;;15.90;76.50;;;;;;6133757;28;20484;-65
2022/12/17 13:39:29;;;;;;;10.70;9.60;;;18.20;56.00;;;;;;6131827;28;20821;-65
2022/12/17 13:42:36;;;;;;;8.60;7.63;;;20.10;50.50;;;;;;6154992;28;20806;-65
2022/12/17 13:45:39;;;;;;;13.27;11.97;;;21.80;44.70;;;;;;6149111;28;20477;-65
2022/12/17 13:48:42;;;;;;;16.60;13.77;;;22.70;42.00;;;;;;6139844;28;20227;-67
2022/12/17 13:51:46;;;;;;;17.63;15.73;;;23.40;40.90;;;;;;6132075;28;20246;-66
2022/12/17 13:54:49;;;;;;;15.60;12.80;;;23.80;38.10;;;;;;6135060;28;20310;-64
2022/12/17 13:57:54;;;;;;;17.60;14.97;;;23.90;35.60;;;;;;6158570;28;20302;-66
2022/12/17 14:01:06;;;;;;;12.07;10.97;;;23.60;34.40;;;;;;6154097;28;20602;-65
2022/12/17 14:04:20;;;;;;;8.77;7.87;;;23.50;34.60;;;;;;6154402;28;20239;-66
2022/12/17 14:07:24;;;;;;;7.70;6.77;;;23.50;32.90;;;;;;6153113;28;20802;-67
2022/12/17 14:10:29;;;;;;;5.30;4.80;;;23.30;33.00;;;;;;6152502;28;20234;-67
2022/12/17 14:13:36;;;;;;;6.77;6.07;;;22.90;31.10;;;;;;6152197;28;20247;-67
2022/12/17 14:16:41;;;;;;;6.63;5.47;;;22.20;30.90;;;;;;6152478;28;20937;-67
2022/12/17 14:19:58;;;;;;;7.47;6.40;;;20.90;32.00;;;;;;6152425;28;20239;-67
2022/12/17 14:23:04;;;;;;;7.10;6.40;;;19.50;35.70;;;;;;6152810;28;20238;-67
2022/12/17 14:26:10;;;;;;;7.20;4.87;;;18.00;37.30;;;;;;6154016;28;20483;-67
2022/12/17 14:29:14;;;;;;;4.53;4.13;;;16.70;37.60;;;;;;6154121;28;20471;-67
2022/12/17 14:32:24;;;;;;;17.83;14.70;;;14.80;38.80;;;;;;6153779;28;20908;-67
2022/12/17 14:35:29;;;;;;;20.07;17.60;;;12.60;49.40;;;;;;6149373;28;20760;-66
2022/12/17 14:38:33;;;;;;;24.60;19.70;;;11.20;56.20;;;;;;6153941;28;20504;-66
2022/12/17 14:45:06;;;;;;;27.07;19.73;;;9.10;72.90;;;;;;6153281;28;20494;-65
2022/12/17 14:48:16;;;;;;;23.73;20.20;;;8.30;84.00;;;;;;6153491;28;20498;-66
2022/12/17 14:51:23;;;;;;;24.60;19.60;;;7.50;93.20;;;;;;6153204;28;20493;-66
2022/12/17 14:54:30;;;;;;;24.37;20.40;;;6.80;97.80;;;;;;6153049;28;20498;-66
2022/12/17 14:57:33;;;;;;;24.30;19.73;;;6.10;99.90;;;;;;6176620;28;20477;-67
2022/12/17 15:00:39;;;;;;;28.27;20.37;;;5.60;99.90;;;;;;6176303;28;20482;-67
2022/12/17 15:03:44;;;;;;;28.83;21.97;;;5.20;99.90;;;;;;6177110;28;20478;-65
2022/12/17 15:06:49;;;;;;;31.87;20.83;;;4.90;99.90;;;;;;6177366;28;20482;-67
2022/12/17 15:09:52;;;;;;;25.27;19.50;;;4.70;99.90;;;;;;6176846;28;20845;-67
2022/12/17 15:12:56;;;;;;;27.60;20.67;;;4.70;99.90;;;;;;6165400;28;20489;-67
2022/12/17 15:16:01;;;;;;;27.47;20.50;;;4.60;99.90;;;;;;6152525;28;20485;-67
2022/12/17 15:19:04;;;;;;;25.00;21.60;;;4.50;99.90;;;;;;6152174;28;20479;-67
2022/12/17 15:22:14;;;;;;;29.43;20.93;;;4.50;99.90;;;;;;6152693;28;20478;-66
2022/12/17 15:25:19;;;;;;;25.17;21.20;;;4.40;99.90;;;;;;6152362;28;20483;-66
2022/12/17 15:28:25;;;;;;;33.87;23.93;;;4.30;99.90;;;;;;6152337;28;20478;-66
2022/12/17 15:31:29;;;;;;;33.80;22.07;;;4.30;99.90;;;;;;6150180;28;20478;-67
2022/12/17 15:34:37;;;;;;;37.67;23.33;;;4.30;99.90;;;;;;6151704;28;20987;-66
2022/12/17 15:37:41;;;;;;;33.90;25.17;;;4.20;99.90;;;;;;6144680;28;20561;-66
2022/12/17 15:40:44;;;;;;;48.27;30.90;;;4.20;99.90;;;;;;6138351;28;20502;-65
2022/12/17 15:43:46;;;;;;;38.50;25.77;;;4.20;99.90;;;;;;6129002;28;20536;-66
2022/12/17 15:46:51;;;;;;;34.63;25.87;;;4.20;99.90;;;;;;6128740;28;20808;-65
2022/12/17 15:49:54;;;;;;;35.57;25.80;;;4.20;99.90;;;;;;6128474;28;20980;-66
2022/12/17 15:52:59;;;;;;;36.00;26.13;;;4.10;99.90;;;;;;6128061;28;20769;-66
2022/12/17 15:56:04;;;;;;;38.17;28.80;;;4.00;99.90;;;;;;6129524;28;20483;-65
2022/12/17 15:59:07;;;;;;;37.50;26.10;;;3.90;99.90;;;;;;6128506;28;20841;-65
2022/12/17 16:02:12;;;;;;;68.43;40.13;;;4.00;99.90;;;;;;6138635;28;20928;-66
2022/12/17 16:05:16;;;;;;;38.23;25.70;;;4.00;99.90;;;;;;6137978;28;20464;-66
2022/12/17 16:08:20;;;;;;;30.70;23.30;;;4.00;99.90;;;;;;6127815;28;20480;-66
2022/12/17 16:11:23;;;;;;;32.87;24.10;;;4.00;99.90;;;;;;6134351;28;20458;-65
2022/12/17 16:14:26;;;;;;;42.40;27.73;;;4.10;99.90;;;;;;6145829;28;20542;-66
2022/12/17 16:17:31;;;;;;;35.07;25.30;;;4.20;99.90;;;;;;6142560;28;20468;-66
2022/12/17 16:20:34;;;;;;;41.00;30.47;;;4.20;99.90;;;;;;6131622;28;20531;-66
2022/12/17 16:23:38;;;;;;;45.07;33.63;;;4.30;99.90;;;;;;6151413;28;20965;-66
2022/12/17 16:26:42;;;;;;;34.17;25.50;;;4.30;99.90;;;;;;6154950;28;20467;-64
2022/12/17 16:29:46;;;;;;;32.33;25.20;;;4.10;99.90;;;;;;6155290;28;20816;-63
2022/12/17 16:32:52;;;;;;;34.43;27.30;;;4.00;99.90;;;;;;6155398;28;20474;-65
2022/12/17 16:35:55;;;;;;;34.70;25.03;;;4.00;99.90;;;;;;6150924;28;20467;-67
2022/12/17 16:38:59;;;;;;;34.20;24.87;;;3.90;99.90;;;;;;6150315;28;20507;-67
2022/12/17 16:42:02;;;;;;;31.73;21.77;;;4.00;99.90;;;;;;6148157;28;20613;-67
2022/12/17 16:45:08;;;;;;;31.77;24.47;;;4.00;99.90;;;;;;6155693;28;20851;-67
2022/12/17 16:48:13;;;;;;;33.10;25.20;;;4.10;99.90;;;;;;6144284;28;20483;-67
2022/12/17 16:51:19;;;;;;;37.40;32.77;;;4.10;99.90;;;;;;6132310;28;20474;-66
2022/12/17 16:54:32;;;;;;;40.80;27.80;;;4.00;99.90;;;;;;6131599;28;20668;-66
2022/12/17 16:57:36;;;;;;;38.10;27.10;;;4.10;99.90;;;;;;6132019;28;20484;-66
2022/12/17 17:00:40;;;;;;;36.50;24.33;;;4.00;99.90;;;;;;6131822;28;20503;-66
2022/12/17 17:03:45;;;;;;;39.50;26.47;;;3.90;99.90;;;;;;6135125;28;20569;-66
2022/12/17 17:06:50;;;;;;;36.87;24.10;;;3.70;99.90;;;;;;6155122;28;20485;-65
2022/12/17 17:09:53;;;;;;;40.80;26.40;;;3.60;99.90;;;;;;6155706;28;20494;-65
2022/12/17 17:12:57;;;;;;;32.80;26.23;;;3.70;99.90;;;;;;6155382;28;20772;-65
2022/12/17 17:16:00;;;;;;;34.80;26.47;;;3.70;99.90;;;;;;6154901;28;20470;-68
2022/12/17 17:19:06;;;;;;;42.90;29.73;;;3.70;99.90;;;;;;6169506;28;20478;-69
2022/12/17 17:22:09;;;;;;;40.87;30.00;;;3.90;99.90;;;;;;6156713;28;21275;-67
2022/12/17 17:25:12;;;;;;;41.53;30.40;;;4.10;99.90;;;;;;6143543;28;20483;-67
2022/12/17 17:28:15;;;;;;;45.70;30.70;;;4.10;99.90;;;;;;6153059;28;20475;-67
2022/12/17 17:31:19;;;;;;;33.40;24.40;;;4.10;99.90;;;;;;6153864;28;20466;-67
2022/12/17 17:34:25;;;;;;;35.27;25.00;;;4.10;99.90;;;;;;6152678;28;21296;-67
2022/12/17 17:37:28;;;;;;;33.77;25.57;;;3.80;99.90;;;;;;6153515;28;20487;-67
2022/12/17 17:40:31;;;;;;;38.20;25.80;;;3.70;99.90;;;;;;6153750;28;20491;-67
2022/12/17 17:43:35;;;;;;;35.03;26.37;;;3.70;99.90;;;;;;6153778;28;20595;-68
2022/12/17 17:46:39;;;;;;;32.70;24.27;;;3.80;99.90;;;;;;6144735;28;20799;-68
2022/12/17 17:49:44;;;;;;;37.33;26.30;;;3.90;99.90;;;;;;6139353;28;20544;-68
2022/12/17 17:52:48;;;;;;;35.20;25.67;;;3.90;99.90;;;;;;6130748;28;20515;-68
2022/12/17 17:55:51;;;;;;;39.17;26.67;;;3.80;99.90;;;;;;6130432;28;20498;-68
2022/12/17 17:58:58;;;;;;;38.27;23.37;;;3.80;99.90;;;;;;6130658;28;20472;-68
2022/12/17 18:02:03;;;;;;;35.77;25.30;;;3.70;99.90;;;;;;6130458;28;20480;-67
2022/12/17 18:05:08;;;;;;;39.90;27.13;;;3.80;99.90;;;;;;6130220;28;20471;-68
2022/12/17 18:08:12;;;;;;;35.40;25.80;;;3.90;99.90;;;;;;6130706;28;20466;-68
2022/12/17 18:11:18;;;;;;;30.60;24.00;;;3.90;99.90;;;;;;6130322;28;20908;-68
2022/12/17 18:14:24;;;;;;;28.70;22.70;;;4.00;99.90;;;;;;6130869;28;20461;-68
2022/12/17 18:17:27;;;;;;;32.23;22.00;;;4.10;99.90;;;;;;6154038;28;20451;-68
2022/12/17 18:20:32;;;;;;;33.73;24.47;;;4.00;99.90;;;;;;6154198;28;20807;-67
2022/12/17 18:23:35;;;;;;;26.43;22.43;;;4.00;99.90;;;;;;6176491;28;20525;-68
2022/12/17 18:26:41;;;;;;;32.90;22.57;;;4.00;99.90;;;;;;6178858;28;20476;-68
2022/12/17 18:29:46;;;;;;;31.47;23.10;;;4.00;99.90;;;;;;6190030;28;20469;-67
2022/12/17 18:32:50;;;;;;;34.53;23.50;;;4.00;99.90;;;;;;6180811;28;20789;-67
2022/12/17 18:35:55;;;;;;;32.67;23.60;;;4.00;99.90;;;;;;6176985;28;20497;-66
2022/12/17 18:38:59;;;;;;;35.20;25.13;;;4.10;99.90;;;;;;6177402;28;20552;-66
2022/12/17 18:45:27;;;;;;;34.23;23.33;;;4.10;99.90;;;;;;6178012;28;21034;-66
2022/12/17 18:48:30;;;;;;;33.93;23.73;;;4.10;99.90;;;;;;6179383;28;20470;-65
2022/12/17 18:51:36;;;;;;;38.87;26.13;;;4.20;99.90;;;;;;6179170;28;20492;-65
2022/12/17 18:54:39;;;;;;;34.27;25.20;;;4.10;99.90;;;;;;6176929;28;20499;-65
2022/12/17 18:57:43;;;;;;;34.67;26.33;;;4.10;99.90;;;;;;6177420;28;20493;-65
2022/12/17 19:00:47;;;;;;;44.60;29.17;;;4.10;99.90;;;;;;6177070;28;20470;-65
2022/12/17 19:03:51;;;;;;;41.13;31.53;;;4.10;99.90;;;;;;6176872;28;20580;-65
2022/12/17 19:06:57;;;;;;;41.27;29.70;;;4.20;99.90;;;;;;6176652;28;20488;-65
2022/12/17 19:10:01;;;;;;;41.33;27.13;;;4.10;99.90;;;;;;6176802;28;20839;-65
2022/12/17 19:13:04;;;;;;;39.77;27.80;;;4.10;99.90;;;;;;6177916;28;20485;-66
2022/12/17 19:16:10;;;;;;;43.50;31.13;;;4.00;99.90;;;;;;6163036;28;20490;-65
2022/12/17 19:19:14;;;;;;;40.40;25.60;;;4.00;99.90;;;;;;6153360;28;20478;-65
2022/12/17 19:22:19;;;;;;;36.53;27.73;;;4.00;99.90;;;;;;6164832;28;20556;-68
2022/12/17 19:25:22;;;;;;;33.50;26.90;;;4.00;99.90;;;;;;6177083;28;20481;-65
2022/12/17 19:28:26;;;;;;;33.90;25.27;;;3.90;99.90;;;;;;6176849;28;20512;-65
2022/12/17 19:31:31;;;;;;;32.80;24.37;;;3.90;99.90;;;;;;6176796;28;20480;-65
2022/12/17 19:34:35;;;;;;;33.27;24.37;;;3.90;99.90;;;;;;6176897;28;20474;-66
2022/12/17 19:37:40;;;;;;;34.10;22.83;;;3.80;99.90;;;;;;6177042;28;20547;-67
2022/12/17 19:40:44;;;;;;;31.90;23.97;;;3.80;99.90;;;;;;6176604;28;20796;-67
2022/12/17 19:43:53;;;;;;;31.53;22.33;;;3.70;99.90;;;;;;6176215;28;20524;-67
2022/12/17 19:46:57;;;;;;;30.03;23.73;;;3.50;99.90;;;;;;6179789;28;20488;-66
2022/12/17 19:50:01;;;;;;;35.33;25.07;;;3.50;99.90;;;;;;6181139;28;20980;-67
2022/12/17 19:53:06;;;;;;;33.33;23.90;;;3.40;99.90;;;;;;6181033;28;20493;-70
2022/12/17 19:56:12;;;;;;;35.67;23.23;;;3.30;99.90;;;;;;6180893;28;20469;-66
2022/12/17 19:59:16;;;;;;;30.00;22.97;;;3.30;99.90;;;;;;6181248;28;20557;-66
2022/12/17 20:02:20;;;;;;;31.13;24.97;;;3.20;99.90;;;;;;6180784;28;20493;-67
2022/12/17 20:05:26;;;;;;;35.77;24.70;;;3.20;99.90;;;;;;6180536;28;20454;-67
2022/12/17 20:08:31;;;;;;;36.20;22.97;;;3.20;99.90;;;;;;6181181;28;20441;-67
2022/12/17 20:11:35;;;;;;;32.30;21.83;;;3.20;99.90;;;;;;6180697;28;20466;-67
2022/12/17 20:14:38;;;;;;;29.90;23.63;;;3.20;99.90;;;;;;6177694;28;20968;-67
2022/12/17 20:17:42;;;;;;;28.40;22.60;;;3.10;99.90;;;;;;6156875;28;20478;-67
2022/12/17 20:20:45;;;;;;;35.33;25.37;;;3.00;99.90;;;;;;6156880;28;20474;-67
2022/12/17 20:23:50;;;;;;;37.73;23.30;;;3.10;99.90;;;;;;6179845;28;20470;-67
2022/12/17 20:26:54;;;;;;;29.50;23.30;;;3.10;99.90;;;;;;6180129;28;20846;-67
2022/12/17 20:29:57;;;;;;;35.03;23.20;;;3.00;99.90;;;;;;6180629;28;20918;-67
2022/12/17 20:33:01;;;;;;;30.30;22.23;;;2.90;99.90;;;;;;6180074;28;20927;-67
2022/12/17 20:36:06;;;;;;;33.10;22.67;;;2.90;99.90;;;;;;6180280;28;20485;-67
2022/12/17 20:39:12;;;;;;;33.90;23.43;;;2.90;99.90;;;;;;6180226;28;20474;-67
2022/12/17 20:42:16;;;;;;;30.10;22.07;;;2.90;99.90;;;;;;6179836;28;20966;-67
2022/12/17 20:45:21;;;;;;;32.67;22.27;;;2.90;99.90;;;;;;6179820;28;20474;-67
2022/12/17 20:48:25;;;;;;;31.07;21.50;;;3.00;99.90;;;;;;6180171;28;21016;-67
2022/12/17 20:51:29;;;;;;;34.93;22.60;;;3.00;99.90;;;;;;6180151;28;20469;-67
2022/12/17 20:54:34;;;;;;;29.23;23.07;;;3.00;99.90;;;;;;6179408;28;20481;-67
2022/12/17 20:57:37;;;;;;;31.30;23.30;;;3.00;99.90;;;;;;6169821;28;20474;-67
2022/12/17 21:00:41;;;;;;;35.57;22.43;;;3.00;99.90;;;;;;6179168;28;20478;-67
2022/12/17 21:03:44;;;;;;;33.20;23.40;;;3.00;99.90;;;;;;6179029;28;20496;-67
2022/12/17 21:06:48;;;;;;;34.67;24.37;;;2.90;99.90;;;;;;6178931;28;20474;-67
2022/12/17 21:09:53;;;;;;;29.70;22.53;;;2.90;99.90;;;;;;6179783;28;20474;-67
2022/12/17 21:16:20;;;;;;;29.90;23.17;;;2.90;99.90;;;;;;6163535;28;20486;-67
2022/12/17 21:19:23;;;;;;;30.70;21.67;;;2.80;99.90;;;;;;6154933;28;20493;-67
2022/12/17 21:22:26;;;;;;;29.43;20.10;;;2.90;99.90;;;;;;6167993;28;20477;-67
2022/12/17 21:25:31;;;;;;;29.27;22.40;;;2.80;99.90;;;;;;6179116;28;20474;-66
2022/12/17 21:28:36;;;;;;;25.80;19.07;;;2.70;99.90;;;;;;6179125;28;20478;-67
2022/12/17 21:31:43;;;;;;;27.47;20.07;;;2.70;99.90;;;;;;6178482;28;20465;-67
2022/12/17 21:34:46;;;;;;;26.77;19.50;;;2.60;99.90;;;;;;6178713;28;20624;-67
2022/12/17 21:37:50;;;;;;;30.17;20.17;;;2.50;99.90;;;;;;6178698;28;20473;-67
2022/12/17 21:40:54;;;;;;;29.27;19.67;;;2.40;99.90;;;;;;6178772;28;20469;-67
2022/12/17 21:44:00;;;;;;;28.90;20.33;;;2.40;99.90;;;;;;6178205;28;21123;-66
2022/12/17 21:47:04;;;;;;;24.90;20.27;;;2.30;99.90;;;;;;6178758;28;20484;-66
2022/12/17 21:50:07;;;;;;;33.97;22.50;;;2.30;99.90;;;;;;6178447;28;20481;-66
2022/12/17 21:53:13;;;;;;;26.20;18.17;;;2.30;99.90;;;;;;6179788;28;20482;-66
2022/12/17 21:56:19;;;;;;;30.43;21.10;;;2.30;99.90;;;;;;6182134;28;20446;-66
2022/12/17 21:59:22;;;;;;;32.87;21.80;;;2.20;99.90;;;;;;6178000;28;20441;-66
2022/12/17 22:02:26;;;;;;;27.43;20.57;;;2.10;99.90;;;;;;6183272;28;20442;-66
2022/12/17 22:05:30;;;;;;;26.10;21.13;;;2.10;99.90;;;;;;6183575;28;20477;-66
2022/12/17 22:08:33;;;;;;;25.27;18.30;;;2.10;99.90;;;;;;6180787;28;20476;-67
2022/12/17 22:11:38;;;;;;;25.60;19.23;;;2.10;99.90;;;;;;6178013;28;20461;-67
2022/12/17 22:14:41;;;;;;;24.50;18.43;;;2.00;99.90;;;;;;6175451;28;20481;-67
2022/12/17 22:17:44;;;;;;;28.80;22.33;;;2.00;99.90;;;;;;6153790;28;20470;-67
2022/12/17 22:20:57;;;;;;;26.57;19.30;;;1.80;99.90;;;;;;6154430;28;20482;-67
2022/12/17 22:24:00;;;;;;;25.20;19.77;;;1.80;99.90;;;;;;6129676;28;20476;-65
2022/12/17 22:27:04;;;;;;;29.03;18.27;;;1.70;99.90;;;;;;6130284;28;20472;-65
2022/12/17 22:33:35;;;;;;;28.63;17.70;;;1.50;99.90;;;;;;6130017;28;20972;-66
2022/12/17 22:36:58;;;;;;;28.67;19.37;;;1.50;99.90;;;;;;6129693;28;20555;-66
2022/12/17 22:40:21;;;;;;;21.13;18.20;;;1.40;99.90;;;;;;6129788;28;21053;-67
2022/12/17 22:43:46;;;;;;;26.53;18.97;;;1.40;99.90;;;;;;6129919;28;20571;-66
2022/12/17 22:47:09;;;;;;;25.90;17.83;;;1.40;99.90;;;;;;6129664;28;20762;-66
2022/12/17 22:50:15;;;;;;;26.77;18.20;;;1.40;99.90;;;;;;6129551;28;20471;-67
2022/12/17 22:53:19;;;;;;;25.50;16.63;;;1.30;99.90;;;;;;6128938;28;20844;-66
2022/12/17 22:56:23;;;;;;;21.93;16.93;;;1.30;99.90;;;;;;6129644;28;20432;-66
2022/12/17 22:59:48;;;;;;;24.70;17.20;;;1.30;99.90;;;;;;6129578;28;20551;-66
2022/12/17 23:02:53;;;;;;;22.23;17.93;;;1.20;99.90;;;;;;6125623;28;20492;-66
2022/12/17 23:06:06;;;;;;;23.23;18.20;;;1.20;99.90;;;;;;6129726;28;20486;-67
2022/12/17 23:09:09;;;;;;;23.07;16.90;;;1.10;99.90;;;;;;6129473;28;20947;-66
2022/12/17 23:15:37;;;;;;;23.80;17.63;;;1.10;99.90;;;;;;6140160;28;20542;-66
2022/12/17 23:18:40;;;;;;;24.03;15.70;;;1.10;99.90;;;;;;6153978;28;20867;-66
2022/12/17 23:21:44;;;;;;;21.67;18.07;;;1.10;99.90;;;;;;6163765;28;20494;-66
2022/12/17 23:24:48;;;;;;;25.13;19.00;;;1.00;99.90;;;;;;6182383;28;20813;-66
2022/12/17 23:27:52;;;;;;;23.10;16.50;;;1.00;99.90;;;;;;6182080;28;20470;-66
2022/12/17 23:30:56;;;;;;;27.10;19.57;;;1.00;99.90;;;;;;6181932;28;20486;-66
2022/12/17 23:34:00;;;;;;;22.30;18.00;;;1.00;99.90;;;;;;6181856;28;21014;-67
2022/12/17 23:37:03;;;;;;;26.40;17.23;;;0.90;99.90;;;;;;6182039;28;20481;-66
2022/12/17 23:40:07;;;;;;;25.50;18.50;;;0.90;99.90;;;;;;6181839;28;20828;-67
2022/12/17 23:43:10;;;;;;;25.03;16.70;;;0.90;99.90;;;;;;6181470;28;20853;-66
2022/12/17 23:46:22;;;;;;;29.37;18.40;;;0.80;99.90;;;;;;6181474;28;20517;-66
2022/12/17 23:49:26;;;;;;;25.90;19.97;;;0.80;99.90;;;;;;6181463;28;20549;-66
2022/12/17 23:52:29;;;;;;;22.87;16.07;;;0.80;99.90;;;;;;6180856;28;20804;-66
2022/12/17 23:55:33;;;;;;;27.43;18.20;;;0.80;99.90;;;;;;6180375;28;20478;-67
2022/12/17 23:58:37;;;;;;;26.43;18.07;;;0.80;99.90;;;;;;6180881;28;20477;-66
